Time;durP1;ratioP1;P1;durP2;ratioP2;P2;SDS_P1;SDS_P2;PMS_P1;PMS_P2;Temp;Humidity;BMP_temperature;BMP_pressure;BME280_temperature;BME280_humidity;BME280_pressure;Samples;Min_cycle;Max_cycle;Signal;HPM_P1;HPM_P2
2023/09/19 00:04:14;;;;;;;0.20;0.20;;;;;;;21.85;60.59;96483.91;10414945;28;20116;-27
2023/09/19 00:09:17;;;;;;;0.40;0.40;;;;;;;21.84;60.54;96480.53;10413191;28;20038;-27
2023/09/19 00:14:17;;;;;;;1.65;0.40;;;;;;;21.85;60.69;96492.41;10413464;28;20082;-27
2023/09/19 00:19:17;;;;;;;0.40;0.30;;;;;;;21.84;60.78;96480.53;10414486;28;20043;-26
2023/09/19 00:24:18;;;;;;;0.40;0.37;;;;;;;21.85;60.63;96489.88;10413244;28;20056;-27
2023/09/19 00:29:19;;;;;;;0.40;0.38;;;;;;;21.83;60.49;96489.06;10412950;28;20358;-27
2023/09/19 00:34:20;;;;;;;0.25;0.20;;;;;;;21.84;60.54;96488.19;10413495;28;20029;-27
2023/09/19 00:39:21;;;;;;;0.57;0.30;;;;;;;21.84;60.54;96480.53;10411059;28;20495;-27
2023/09/19 00:44:23;;;;;;;0.30;0.20;;;;;;;21.83;60.90;96483.97;10411717;28;20112;-27
2023/09/19 00:49:25;;;;;;;0.32;0.20;;;;;;;21.83;60.53;96489.06;10411806;28;20368;-27
2023/09/19 00:54:25;;;;;;;0.63;0.40;;;;;;;21.84;60.50;96490.75;10410065;28;20036;-27
2023/09/19 00:59:27;;;;;;;0.50;0.28;;;;;;;21.82;60.65;96484.81;10411061;28;20402;-27
2023/09/19 01:04:27;;;;;;;1.33;0.25;;;;;;;21.83;60.50;96494.16;10405933;28;20629;-26
2023/09/19 01:09:28;;;;;;;0.30;0.20;;;;;;;21.83;60.60;96494.16;10409553;28;20068;-27
2023/09/19 01:14:58;;;;;;;0.30;0.30;;;;;;;21.83;60.49;96498.41;10407266;28;20033;-27
2023/09/19 01:20:36;;;;;;;1.50;0.17;;;;;;;21.83;60.58;96498.41;10405275;28;20059;-27
2023/09/19 01:26:08;;;;;;;0.50;0.30;;;;;;;21.82;60.60;96491.63;10406094;28;20045;-27
2023/09/19 01:31:11;;;;;;;0.35;0.20;;;;;;;21.78;60.56;96492.53;10408092;28;20552;-27
2023/09/19 01:36:12;;;;;;;0.45;0.45;;;;;;;21.84;60.71;96508.59;10410116;28;20069;-27
2023/09/19 01:41:22;;;;;;;1.75;0.40;;;;;;;21.85;60.99;96505.16;10408538;28;20068;-27
2023/09/19 01:46:37;;;;;;;1.13;0.40;;;;;;;21.87;60.57;96505.13;10400581;28;20030;-26
2023/09/19 01:51:51;;;;;;;0.40;0.30;;;;;;;21.86;60.71;96499.19;10405972;28;20498;-27
2023/09/19 01:57:16;;;;;;;0.57;0.40;;;;;;;21.86;60.45;96504.28;10400838;28;20037;-26
2023/09/19 02:02:17;;;;;;;0.57;0.40;;;;;;;21.84;60.57;96498.38;10407535;28;20038;-27
2023/09/19 02:07:17;;;;;;;0.80;0.50;;;;;;;21.87;60.60;96510.22;10403851;28;20196;-27
2023/09/19 02:12:18;;;;;;;1.27;0.53;;;;;;;21.86;60.50;96513.63;10392917;28;20269;-27
2023/09/19 02:17:19;;;;;;;0.90;0.50;;;;;;;21.86;60.31;96514.50;10404660;28;20427;-27
2023/09/19 02:22:19;;;;;;;0.50;0.38;;;;;;;21.86;60.41;96521.28;10404967;28;20118;-27
2023/09/19 02:27:20;;;;;;;0.43;0.27;;;;;;;21.86;60.36;96524.69;10400227;28;20026;-27
2023/09/19 02:32:20;;;;;;;2.47;0.50;;;;;;;21.84;60.20;96526.44;10409074;28;20033;-26
2023/09/19 02:37:22;;;;;;;0.38;0.30;;;;;;;21.87;60.29;96539.09;10403245;28;20083;-27
2023/09/19 02:42:22;;;;;;;0.93;0.37;;;;;;;21.89;60.16;96524.63;10404410;28;20508;-28
2023/09/19 02:47:23;;;;;;;0.70;0.40;;;;;;;21.90;60.21;96523.75;10403147;28;20431;-26
2023/09/19 02:52:24;;;;;;;0.90;0.50;;;;;;;21.93;59.77;96528.81;10405164;28;20040;-26
2023/09/19 02:57:25;;;;;;;1.45;0.60;;;;;;;21.93;59.54;96535.63;10402171;28;20030;-27
2023/09/19 03:02:27;;;;;;;0.82;0.50;;;;;;;21.91;59.91;96533.06;10400477;28;20043;-27
2023/09/19 03:07:28;;;;;;;0.90;0.47;;;;;;;21.91;60.10;96517.78;10413193;28;20030;-27
2023/09/19 03:12:29;;;;;;;0.60;0.43;;;;;;;21.91;60.04;96522.88;10404677;28;20041;-27
2023/09/19 03:17:29;;;;;;;0.50;0.40;;;;;;;21.92;60.24;96534.78;10403518;28;20288;-27
2023/09/19 03:22:30;;;;;;;0.57;0.47;;;;;;;21.93;60.25;96544.13;10407553;28;20492;-27
2023/09/19 03:27:30;;;;;;;0.73;0.50;;;;;;;21.94;60.34;96540.69;10395485;28;20030;-26
2023/09/19 03:32:31;;;;;;;0.90;0.40;;;;;;;21.94;60.37;96547.50;10407374;28;20038;-26
2023/09/19 03:37:33;;;;;;;0.60;0.40;;;;;;;21.93;60.26;96541.56;10400206;28;20021;-27
2023/09/19 03:42:36;;;;;;;0.50;0.40;;;;;;;21.94;60.34;96542.38;10400596;28;20497;-28
2023/09/19 03:47:37;;;;;;;2.03;0.70;;;;;;;21.91;60.31;96527.16;10403355;28;20029;-27
2023/09/19 03:52:38;;;;;;;0.40;0.32;;;;;;;21.92;60.38;96534.78;10400137;28;20064;-28
2023/09/19 03:57:39;;;;;;;2.42;0.40;;;;;;;21.85;60.30;96523.00;10391880;28;20042;-27
2023/09/19 04:02:39;;;;;;;1.20;0.45;;;;;;;21.90;60.26;96530.56;10406209;28;20411;-27
2023/09/19 04:07:40;;;;;;;1.10;0.65;;;;;;;21.91;60.34;96532.25;10405632;28;20037;-27
2023/09/19 04:12:51;;;;;;;0.80;0.60;;;;;;;21.92;60.37;96545.00;10402713;28;20045;-27
2023/09/19 04:17:51;;;;;;;0.57;0.35;;;;;;;21.91;60.35;96553.47;10408097;28;20288;-27
2023/09/19 04:22:52;;;;;;;1.40;0.60;;;;;;;21.91;60.32;96539.91;10413785;28;20029;-26
2023/09/19 04:27:52;;;;;;;0.70;0.40;;;;;;;21.91;60.31;96548.38;10407221;28;20056;-27
2023/09/19 04:32:53;;;;;;;0.80;0.47;;;;;;;21.91;60.38;96545.00;10410277;28;20387;-27
2023/09/19 04:37:54;;;;;;;0.75;0.52;;;;;;;21.89;60.52;96549.28;10413276;28;20485;-27
2023/09/19 04:42:59;;;;;;;1.42;0.30;;;;;;;21.90;60.37;96556.88;10407670;28;20048;-25
2023/09/19 04:48:00;;;;;;;1.93;1.30;;;;;;;21.87;60.84;96561.19;10412735;28;20029;-27
2023/09/19 04:53:01;;;;;;;5.77;0.87;;;;;;;21.59;62.25;96576.06;10410553;28;20110;-27
2023/09/19 04:58:02;;;;;;;8.48;0.95;;;;;;;21.67;61.85;96583.59;10406647;28;20464;-27
2023/09/19 05:03:04;;;;;;;2.25;0.80;;;;;;;21.80;61.22;96580.03;10412572;28;20029;-26
2023/09/19 05:08:05;;;;;;;4.72;0.90;;;;;;;21.77;62.01;96591.09;10406005;28;20484;-27
2023/09/19 05:13:07;;;;;;;0.57;0.40;;;;;;;21.84;61.10;96582.50;10407200;28;20060;-26
2023/09/19 05:18:08;;;;;;;15.02;2.85;;;;;;;21.81;61.81;96582.53;10412304;28;20026;-27
2023/09/19 05:23:08;;;;;;;10.00;1.70;;;;;;;21.76;61.99;96589.41;10406154;28;20038;-28
2023/09/19 05:28:11;;;;;;;5.00;1.63;;;;;;;21.68;61.78;96596.34;10404990;28;20063;-27
2023/09/19 05:33:12;;;;;;;4.72;1.15;;;;;;;21.53;62.71;96596.50;10413156;28;20380;-27
2023/09/19 05:38:13;;;;;;;4.90;1.30;;;;;;;21.63;62.31;96603.16;10408683;28;20041;-26
2023/09/19 05:43:14;;;;;;;2.97;0.98;;;;;;;21.76;61.70;96620.00;10403487;28;20025;-28
2023/09/19 05:48:15;;;;;;;4.25;1.40;;;;;;;21.80;61.36;96631.81;10410822;28;20033;-27
2023/09/19 05:53:16;;;;;;;16.50;1.20;;;;;;;21.82;61.22;96639.44;10407270;28;20087;-27
2023/09/19 05:58:17;;;;;;;4.07;0.90;;;;;;;21.79;61.05;96635.22;10404525;28;20039;-27
2023/09/19 06:03:18;;;;;;;3.70;0.88;;;;;;;21.83;61.08;96642.00;10410478;28;20041;-27
2023/09/19 06:08:19;;;;;;;1.73;1.13;;;;;;;21.83;61.04;96644.53;10408579;28;20487;-27
2023/09/19 06:13:19;;;;;;;1.40;0.77;;;;;;;21.83;61.04;96642.00;10406696;28;20091;-27
2023/09/19 06:18:20;;;;;;;1.73;0.70;;;;;;;21.83;60.69;96659.84;10409973;28;20616;-28
2023/09/19 06:23:21;;;;;;;1.93;0.70;;;;;;;21.82;60.88;96655.56;10405475;28;20120;-27
2023/09/19 06:28:25;;;;;;;1.10;0.60;;;;;;;21.83;60.78;96662.38;10403590;28;20033;-27
2023/09/19 06:33:25;;;;;;;2.97;0.73;;;;;;;21.83;60.91;96667.47;10409045;28;20500;-27
2023/09/19 06:38:26;;;;;;;2.20;0.57;;;;;;;21.83;60.95;96669.16;10403745;28;20108;-27
2023/09/19 06:43:28;;;;;;;2.25;0.52;;;;;;;21.82;60.90;96668.31;10401825;28;20025;-28
2023/09/19 06:48:29;;;;;;;2.35;1.33;;;;;;;21.83;60.68;96670.03;10408075;28;20025;-27
2023/09/19 06:53:31;;;;;;;1.20;0.43;;;;;;;21.83;60.86;96674.28;10407336;28;20037;-26
2023/09/19 06:58:32;;;;;;;2.72;0.70;;;;;;;21.81;60.63;96676.81;10402010;28;20083;-27
2023/09/19 07:03:33;;;;;;;1.20;0.50;;;;;;;21.82;60.96;96680.22;10407987;28;20577;-27
2023/09/19 07:08:33;;;;;;;2.53;1.00;;;;;;;21.81;60.77;96679.38;10406448;28;20120;-27
2023/09/19 07:13:35;;;;;;;2.63;0.60;;;;;;;21.82;60.74;96683.59;10405155;28;20506;-27
2023/09/19 07:18:36;;;;;;;0.80;0.60;;;;;;;21.82;60.71;96686.16;10408193;28;20112;-27
2023/09/19 07:23:38;;;;;;;1.55;0.70;;;;;;;21.82;60.75;96695.53;10395539;28;20435;-27
2023/09/19 07:28:38;;;;;;;1.10;0.70;;;;;;;21.81;60.78;96694.66;10401948;28;20046;-27
2023/09/19 07:33:40;;;;;;;0.68;0.50;;;;;;;21.82;60.96;96692.97;10407808;28;20403;-27
2023/09/19 07:38:41;;;;;;;0.80;0.47;;;;;;;21.80;60.89;96693.00;10406403;28;20052;-27
2023/09/19 07:43:41;;;;;;;3.38;0.50;;;;;;;21.82;60.84;96701.44;10400731;28;20037;-26
2023/09/19 07:48:47;;;;;;;2.73;0.80;;;;;;;21.82;60.77;96705.72;10409797;28;20061;-26
2023/09/19 07:53:48;;;;;;;1.00;0.50;;;;;;;21.81;60.88;96707.41;10414202;28;20446;-26
2023/09/19 07:58:48;;;;;;;1.17;0.60;;;;;;;21.80;60.78;96713.38;10409418;28;20049;-27
2023/09/19 08:03:48;;;;;;;1.23;1.10;;;;;;;21.81;60.82;96720.16;10414966;28;20477;-26
2023/09/19 08:08:53;;;;;;;0.93;0.33;;;;;;;21.80;60.63;96717.66;10410870;28;20029;-27
2023/09/19 08:13:53;;;;;;;0.28;0.28;;;;;;;21.81;60.59;96734.63;10406130;28;20044;-27
2023/09/19 08:18:55;;;;;;;0.50;0.40;;;;;;;21.80;60.64;96738.88;10415011;28;20025;-27
2023/09/19 08:23:57;;;;;;;0.40;0.30;;;;;;;21.81;60.84;96740.53;10413058;28;20045;-28
2023/09/19 08:28:57;;;;;;;1.73;0.60;;;;;;;21.81;60.84;96740.53;10408048;28;20061;-27
2023/09/19 08:33:58;;;;;;;1.37;1.10;;;;;;;21.80;60.75;96748.22;10413807;28;20107;-27
2023/09/19 08:38:58;;;;;;;0.73;0.38;;;;;;;21.80;60.61;96754.16;10412378;28;20288;-27
2023/09/19 08:44:01;;;;;;;1.20;0.37;;;;;;;21.81;60.75;96755.84;10407329;28;20055;-27
2023/09/19 08:49:08;;;;;;;0.77;0.30;;;;;;;21.79;60.70;96765.22;10413303;28;21835;-28
2023/09/19 08:54:18;;;;;;;0.40;0.38;;;;;;;21.79;60.69;96767.78;10410223;28;20633;-27
2023/09/19 08:59:24;;;;;;;0.80;0.50;;;;;;;21.80;60.66;96769.44;10404259;28;20033;-26
2023/09/19 09:04:26;;;;;;;0.20;0.20;;;;;;;21.80;60.74;96773.72;10412536;28;20083;-27
2023/09/19 09:09:28;;;;;;;0.93;0.50;;;;;;;21.80;60.64;96772.00;10409732;28;20033;-27
2023/09/19 09:14:29;;;;;;;1.58;0.40;;;;;;;21.80;60.61;96766.91;10406806;28;20553;-26
2023/09/19 09:19:30;;;;;;;0.55;0.40;;;;;;;21.78;60.69;96773.72;10412598;28;20120;-27
2023/09/19 09:24:33;;;;;;;0.30;0.22;;;;;;;21.78;60.75;96771.19;10410485;28;20049;-27
2023/09/19 09:29:49;;;;;;;0.77;0.30;;;;;;;21.79;60.78;96772.88;10410745;28;20037;-27
2023/09/19 09:34:52;;;;;;;0.38;0.32;;;;;;;21.75;60.68;96765.28;10411363;28;20041;-27
2023/09/19 09:40:18;;;;;;;0.90;0.50;;;;;;;21.79;60.63;96772.88;10407521;28;20042;-27
2023/09/19 09:45:56;;;;;;;0.35;0.30;;;;;;;21.79;60.72;96772.00;10404984;28;20040;-27
2023/09/19 09:55:59;;;;;;;0.40;0.40;;;;;;;21.80;60.66;96769.44;10410502;28;20037;-27
2023/09/19 10:01:02;;;;;;;0.40;0.40;;;;;;;21.77;60.60;96764.41;10400546;28;20147;-27
2023/09/19 10:06:11;;;;;;;0.57;0.43;;;;;;;21.80;60.75;96769.44;10410198;28;20033;-27
2023/09/19 10:11:19;;;;;;;1.27;0.40;;;;;;;21.78;60.53;96749.94;10406080;28;20037;-26
2023/09/19 10:16:19;;;;;;;0.63;0.40;;;;;;;21.82;60.71;96764.34;10407347;28;20030;-26
2023/09/19 10:21:22;;;;;;;0.75;0.47;;;;;;;21.80;60.61;96751.59;10409727;28;20037;-27
2023/09/19 10:26:24;;;;;;;1.30;0.50;;;;;;;21.81;60.71;96758.38;10406321;28;20091;-26
2023/09/19 10:31:27;;;;;;;0.50;0.38;;;;;;;21.80;60.73;96754.16;10403243;28;20087;-27
2023/09/19 10:36:34;;;;;;;2.00;0.82;;;;;;;21.82;60.83;96749.88;10404408;28;20083;-27
2023/09/19 10:41:37;;;;;;;1.45;0.50;;;;;;;21.81;60.75;96738.00;10409435;28;20041;-27
2023/09/19 10:46:38;;;;;;;0.35;0.30;;;;;;;21.80;60.90;96743.97;10402626;28;20033;-27
2023/09/19 10:51:43;;;;;;;2.92;0.63;;;;;;;21.81;60.08;96737.16;10408135;28;20042;-27
2023/09/19 10:56:49;;;;;;;;;;;;;;;21.82;60.72;96739.69;10408114;28;20412;-27
2023/09/19 11:01:57;;;;;;;2.88;1.50;;;;;;;21.82;60.82;96741.41;10408775;28;19971;-26
2023/09/19 11:07:08;;;;;;;2.55;1.42;;;;;;;21.82;60.95;96741.41;10404090;28;20033;-26
2023/09/19 11:12:09;;;;;;;2.38;1.88;;;;;;;21.83;60.91;96733.75;10406424;28;20049;-27
2023/09/19 11:17:13;;;;;;;2.92;1.58;;;;;;;21.81;60.87;96735.44;10407863;28;20033;-27
2023/09/19 11:22:14;;;;;;;3.22;2.20;;;;;;;21.81;60.96;96730.34;10406640;28;20049;-27
2023/09/19 11:27:17;;;;;;;7.03;4.33;;;;;;;21.82;60.90;96726.94;10406058;28;20041;-28
2023/09/19 11:32:56;;;;;;;7.28;3.15;;;;;;;21.84;60.93;96732.88;10407565;28;20041;-27
2023/09/19 11:37:58;;;;;;;4.82;2.47;;;;;;;21.81;60.93;96730.34;10404705;28;20049;-28
2023/09/19 11:42:59;;;;;;;3.58;2.20;;;;;;;21.81;60.98;96720.16;10405432;28;20029;-27
2023/09/19 11:48:02;;;;;;;2.90;2.00;;;;;;;21.81;60.91;96717.59;10407373;28;20108;-26
2023/09/19 11:53:02;;;;;;;6.88;2.22;;;;;;;21.83;60.76;96723.56;10405674;28;20069;-27
2023/09/19 11:58:04;;;;;;;4.60;2.17;;;;;;;21.83;60.89;96718.47;10405002;28;20060;-27
2023/09/19 12:03:09;;;;;;;3.63;2.05;;;;;;;21.81;60.98;96707.41;10358487;28;20054;-27
2023/09/19 12:08:10;;;;;;;7.63;2.30;;;;;;;21.83;61.12;96708.25;10287611;28;20206;-27
2023/09/19 12:13:15;;;;;;;8.63;2.25;;;;;;;21.82;61.07;96706.53;10289929;28;20109;-27
2023/09/19 12:18:28;;;;;;;5.45;2.15;;;;;;;21.83;61.05;96697.22;10285701;28;20041;-28
2023/09/19 12:23:29;;;;;;;14.13;3.22;;;;;;;21.84;61.75;96699.75;10282824;28;20047;-27
2023/09/19 12:28:31;;;;;;;5.25;2.17;;;;;;;21.82;61.14;96691.25;10286158;28;20121;-26
2023/09/19 12:33:32;;;;;;;6.13;1.90;;;;;;;21.81;61.00;96673.44;10285937;28;20050;-27
2023/09/19 12:38:33;;;;;;;4.07;1.70;;;;;;;21.83;60.93;96681.91;10290317;28;20125;-27
2023/09/19 12:43:36;;;;;;;4.82;1.48;;;;;;;21.83;60.78;96677.69;10289142;28;20126;-27
2023/09/19 12:48:37;;;;;;;14.32;2.47;;;;;;;21.81;61.20;96668.34;10291466;28;20383;-27
2023/09/19 12:53:46;;;;;;;4.57;2.00;;;;;;;21.81;62.18;96666.63;10291463;28;20099;-27
2023/09/19 12:59:03;;;;;;;9.00;3.67;;;;;;;21.83;61.70;96662.38;10291972;28;20035;-27
2023/09/19 13:04:25;;;;;;;4.72;1.80;;;;;;;21.83;62.05;96657.28;10294723;28;20129;-27
2023/09/19 13:09:38;;;;;;;5.50;2.05;;;;;;;21.82;61.59;96647.09;10293423;28;20520;-28
2023/09/19 13:14:40;;;;;;;4.10;2.47;;;;;;;21.77;61.41;96636.13;10287595;28;20620;-26
2023/09/19 13:19:49;;;;;;;3.33;1.77;;;;;;;21.81;61.46;96643.69;10290875;28;20512;-27
2023/09/19 13:24:51;;;;;;;5.85;2.20;;;;;;;21.81;61.40;96633.50;10292257;28;20066;-27
2023/09/19 13:29:51;;;;;;;4.80;1.73;;;;;;;21.81;61.17;96628.41;10287508;28;20039;-27
2023/09/19 13:34:51;;;;;;;5.37;2.03;;;;;;;21.84;61.37;96632.63;10292655;28;20482;-26
2023/09/19 13:39:53;;;;;;;2.87;1.80;;;;;;;21.82;61.48;96619.06;10288050;28;20026;-27
2023/09/19 13:44:54;;;;;;;7.40;1.95;;;;;;;21.81;61.74;96623.31;10285692;28;20039;-27
2023/09/19 13:49:54;;;;;;;7.25;1.70;;;;;;;21.83;61.62;96621.59;10285015;28;20069;-26
2023/09/19 13:54:57;;;;;;;6.37;2.23;;;;;;;21.84;61.39;96615.63;10287411;28;20038;-27
2023/09/19 13:59:57;;;;;;;2.75;1.80;;;;;;;21.82;61.25;96604.59;10285708;28;20030;-27
2023/09/19 14:04:58;;;;;;;4.07;1.50;;;;;;;21.84;61.15;96605.44;10284775;28;20031;-27
2023/09/19 14:09:58;;;;;;;1.77;1.20;;;;;;;21.83;60.76;96598.66;10292764;28;20042;-27
2023/09/19 14:14:58;;;;;;;3.00;1.20;;;;;;;21.87;58.75;96596.88;10290080;28;20038;-26
2023/09/19 14:19:59;;;;;;;7.07;1.40;;;;;;;21.86;60.51;96601.16;10289197;28;20035;-26
2023/09/19 14:24:59;;;;;;;2.33;1.20;;;;;;;21.82;60.87;96591.84;10289765;28;20050;-27
2023/09/19 14:30:00;;;;;;;5.75;2.20;;;;;;;21.84;60.45;96587.59;10291919;28;20094;-27
2023/09/19 14:35:00;;;;;;;3.13;1.40;;;;;;;21.84;60.50;96589.28;10292470;28;20409;-27
2023/09/19 14:40:08;;;;;;;1.53;1.30;;;;;;;21.76;59.67;96579.22;10294007;28;20030;-27
2023/09/19 14:45:09;;;;;;;2.58;1.10;;;;;;;21.81;58.97;96577.44;10287973;28;20416;-27
2023/09/19 14:50:10;;;;;;;3.42;1.30;;;;;;;21.80;60.76;96578.28;10293560;28;20046;-27
2023/09/19 14:55:14;;;;;;;3.95;1.13;;;;;;;21.79;60.70;96579.16;10284811;28;20034;-27
2023/09/19 15:00:14;;;;;;;3.42;1.17;;;;;;;21.78;61.01;96572.38;10281589;28;20129;-27
2023/09/19 15:05:16;;;;;;;3.00;1.10;;;;;;;21.79;60.62;96570.66;10283618;28;20042;-27
2023/09/19 15:10:18;;;;;;;5.85;1.45;;;;;;;21.78;60.88;96561.34;10290562;28;20039;-27
2023/09/19 15:15:18;;;;;;;1.98;0.90;;;;;;;21.77;60.73;96565.63;10285500;28;20069;-27
2023/09/19 15:20:19;;;;;;;1.83;1.07;;;;;;;21.78;60.57;96567.28;10288520;28;20175;-27
2023/09/19 15:25:19;;;;;;;2.77;1.10;;;;;;;21.77;60.71;96569.84;10283441;28;20037;-26
2023/09/19 15:30:19;;;;;;;1.70;1.00;;;;;;;21.79;60.71;96573.22;10283719;28;20035;-29
2023/09/19 15:35:20;;;;;;;1.80;0.83;;;;;;;21.77;60.86;96574.94;10285845;28;20035;-27
2023/09/19 15:40:23;;;;;;;4.38;1.20;;;;;;;21.77;60.69;96575.81;10287206;28;20039;-26
2023/09/19 15:45:25;;;;;;;2.58;1.20;;;;;;;21.75;60.93;96567.34;10282934;28;20042;-27
2023/09/19 15:50:25;;;;;;;1.15;0.73;;;;;;;21.77;60.71;96568.16;10286340;28;20035;-26
2023/09/19 15:55:26;;;;;;;1.67;0.93;;;;;;;21.74;60.93;96565.63;10288352;28;20482;-27
2023/09/19 16:00:26;;;;;;;2.87;0.67;;;;;;;21.70;61.02;96561.47;10287003;28;20505;-27
2023/09/19 16:05:27;;;;;;;1.30;0.80;;;;;;;21.65;60.96;96558.13;10282544;28;20490;-27
2023/09/19 16:10:28;;;;;;;0.60;0.60;;;;;;;21.70;60.78;96560.63;10290245;28;20058;-27
2023/09/19 16:15:29;;;;;;;2.88;0.93;;;;;;;21.65;59.05;96570.06;10290575;28;20100;-27
2023/09/19 16:20:30;;;;;;;0.90;0.80;;;;;;;21.68;60.58;96562.34;10290913;28;20039;-27
2023/09/19 16:25:32;;;;;;;1.42;0.50;;;;;;;21.72;60.47;96557.19;10291898;28;20046;-27
2023/09/19 16:30:35;;;;;;;1.60;0.65;;;;;;;21.75;60.64;96561.41;10288454;28;20046;-27
2023/09/19 16:35:39;;;;;;;0.85;0.50;;;;;;;21.72;60.37;96562.28;10294122;28;20077;-27
2023/09/19 16:40:41;;;;;;;2.65;0.45;;;;;;;21.74;60.05;96555.44;10289442;28;20030;-27
2023/09/19 16:45:52;;;;;;;1.17;0.60;;;;;;;21.74;60.36;96554.63;10287012;28;20037;-27
2023/09/19 16:50:53;;;;;;;3.20;0.52;;;;;;;21.75;60.45;96557.16;10291647;28;20046;-27
2023/09/19 16:55:54;;;;;;;1.48;0.60;;;;;;;21.74;60.53;96559.72;10286096;28;20027;-27
2023/09/19 17:00:55;;;;;;;1.30;0.70;;;;;;;21.75;60.71;96567.34;10288579;28;20030;-26
2023/09/19 17:05:59;;;;;;;0.73;0.50;;;;;;;21.71;60.50;96560.59;10291428;28;20037;-27
2023/09/19 17:11:01;;;;;;;0.57;0.52;;;;;;;21.74;60.36;96575.84;10291435;28;20031;-27
2023/09/19 17:16:10;;;;;;;1.05;0.73;;;;;;;21.75;60.54;96586.88;10288161;28;20037;-27
2023/09/19 17:21:13;;;;;;;0.52;0.52;;;;;;;21.70;60.65;96584.41;10291101;28;20034;-27
2023/09/19 17:26:16;;;;;;;0.60;0.38;;;;;;;21.75;60.58;96595.38;10288109;28;20113;-27
2023/09/19 17:31:21;;;;;;;0.65;0.43;;;;;;;21.75;60.68;96592.84;10285045;28;20037;-26
2023/09/19 17:36:23;;;;;;;0.63;0.50;;;;;;;21.74;60.60;96600.50;10289749;28;20121;-27
2023/09/19 17:41:25;;;;;;;0.88;0.60;;;;;;;21.71;60.70;96591.19;10291666;28;20085;-27
2023/09/19 17:46:28;;;;;;;0.45;0.40;;;;;;;21.71;60.70;96596.28;10285034;28;20058;-27
2023/09/19 17:51:29;;;;;;;1.00;0.50;;;;;;;21.75;60.54;96597.06;10278288;28;20089;-27
2023/09/19 17:56:30;;;;;;;0.40;0.40;;;;;;;21.77;60.60;96611.47;10289480;28;20104;-27
2023/09/19 18:01:32;;;;;;;1.30;0.90;;;;;;;21.77;60.47;96611.47;10284031;28;20161;-26
2023/09/19 18:06:32;;;;;;;0.82;0.60;;;;;;;21.77;59.33;96606.38;10287688;28;20037;-27
2023/09/19 18:11:33;;;;;;;1.65;1.17;;;;;;;21.77;58.73;96619.13;10282946;28;20049;-27
2023/09/19 18:16:33;;;;;;;2.45;0.90;;;;;;;21.77;58.54;96611.47;10284685;28;20090;-27
2023/09/19 18:21:34;;;;;;;5.87;1.43;;;;;;;21.77;57.93;96616.59;10285330;28;20046;-27
2023/09/19 18:26:35;;;;;;;1.10;0.70;;;;;;;21.78;59.92;96622.50;10292821;28;20047;-27
2023/09/19 18:31:37;;;;;;;2.65;0.65;;;;;;;21.76;59.95;96630.19;10282451;28;20062;-26
2023/09/19 18:36:38;;;;;;;2.78;0.77;;;;;;;21.77;59.31;96636.13;10276680;28;20520;-27
2023/09/19 18:41:38;;;;;;;2.10;0.70;;;;;;;21.78;59.84;96637.78;10287422;28;20130;-27
2023/09/19 18:46:43;;;;;;;1.63;0.70;;;;;;;21.80;60.00;96636.09;10288614;28;20038;-27
2023/09/19 18:51:44;;;;;;;1.48;0.57;;;;;;;21.84;59.69;96642.81;10285615;28;20045;-27
2023/09/19 18:56:46;;;;;;;2.45;0.93;;;;;;;21.76;60.15;96624.25;10295996;28;20065;-27
2023/09/19 19:01:46;;;;;;;3.67;0.95;;;;;;;21.91;61.01;96649.50;10284183;28;20031;-27
2023/09/19 19:06:47;;;;;;;2.50;0.93;;;;;;;21.90;59.98;96656.31;10269742;28;20038;-27
2023/09/19 19:11:48;;;;;;;2.92;0.77;;;;;;;21.91;60.44;96660.53;10280981;28;20130;-27
2023/09/19 19:16:49;;;;;;;1.95;0.80;;;;;;;21.91;60.42;96665.63;10278684;28;20045;-26
2023/09/19 19:21:50;;;;;;;0.95;0.63;;;;;;;21.93;60.33;96663.94;10275372;28;20146;-27
2023/09/19 19:26:50;;;;;;;2.10;0.60;;;;;;;21.94;60.50;96670.72;10289146;28;20045;-27
2023/09/19 19:31:52;;;;;;;2.00;0.60;;;;;;;21.93;60.38;96669.03;10280038;28;20508;-26
2023/09/19 19:36:52;;;;;;;3.85;1.42;;;;;;;21.88;60.44;96670.78;10284534;28;20416;-27
2023/09/19 19:41:57;;;;;;;5.03;0.97;;;;;;;21.92;60.50;96682.63;10291982;28;20038;-27
2023/09/19 19:46:57;;;;;;;1.55;1.30;;;;;;;21.92;60.41;96692.84;10294463;28;20296;-28
2023/09/19 19:51:58;;;;;;;1.17;0.80;;;;;;;21.92;60.56;96692.84;10292777;28;20043;-27
2023/09/19 19:56:58;;;;;;;2.17;0.63;;;;;;;21.90;60.58;96689.44;10288968;28;20046;-26
2023/09/19 20:01:58;;;;;;;2.10;0.90;;;;;;;21.87;60.53;96689.50;10292151;28;20270;-27
2023/09/19 20:06:59;;;;;;;1.07;0.60;;;;;;;21.88;60.44;96686.09;10287932;28;20612;-27
2023/09/19 20:12:00;;;;;;;1.65;0.60;;;;;;;21.88;60.47;96693.72;10287984;28;20097;-27
2023/09/19 20:17:00;;;;;;;1.23;0.77;;;;;;;21.87;60.53;96689.50;10284189;28;20074;-27
2023/09/19 20:22:01;;;;;;;2.03;1.07;;;;;;;21.89;60.60;96692.88;10282985;28;20408;-26
2023/09/19 20:27:01;;;;;;;1.10;0.63;;;;;;;21.89;60.48;96692.88;10285404;28;20496;-27
2023/09/19 20:32:02;;;;;;;1.55;1.05;;;;;;;21.89;60.52;96690.31;10305551;28;20105;-26
2023/09/19 20:37:02;;;;;;;2.42;0.75;;;;;;;21.87;60.55;96684.41;10295267;28;20162;-27
2023/09/19 20:42:03;;;;;;;1.83;0.70;;;;;;;21.86;60.56;96692.91;10288482;28;20030;-27
2023/09/19 20:47:04;;;;;;;1.17;0.40;;;;;;;21.87;60.58;96683.53;10289703;28;20405;-27
2023/09/19 20:52:05;;;;;;;1.33;0.60;;;;;;;21.88;60.41;96685.25;10290060;28;20038;-27
2023/09/19 20:57:05;;;;;;;2.22;0.55;;;;;;;21.86;60.55;96682.72;10290892;28;20035;-28
2023/09/19 21:02:06;;;;;;;1.73;0.70;;;;;;;21.87;60.53;96683.53;10288449;28;20035;-26
2023/09/19 21:07:06;;;;;;;4.93;0.90;;;;;;;21.87;60.98;96689.50;10289568;28;20031;-27
2023/09/19 21:12:07;;;;;;;1.60;0.52;;;;;;;21.85;60.89;96688.69;10288188;28;20047;-27
2023/09/19 21:17:07;;;;;;;2.50;0.70;;;;;;;21.86;61.13;96686.97;10290502;28;20512;-26
2023/09/19 21:22:08;;;;;;;0.67;0.50;;;;;;;21.84;60.87;96684.44;10289035;28;20490;-27
2023/09/19 21:27:10;;;;;;;0.88;0.60;;;;;;;21.81;60.77;96678.56;10289195;28;20453;-27
2023/09/19 21:32:11;;;;;;;1.33;0.65;;;;;;;21.81;60.83;96687.03;10289119;28;20030;-27
2023/09/19 21:37:14;;;;;;;1.20;0.70;;;;;;;21.81;60.73;96679.38;10288699;28;20081;-27
2023/09/19 21:42:15;;;;;;;0.70;0.40;;;;;;;21.81;60.77;96681.94;10284752;28;20039;-27
2023/09/19 21:47:15;;;;;;;0.82;0.50;;;;;;;21.80;60.75;96680.25;10291507;28;20416;-27
2023/09/19 21:52:15;;;;;;;1.07;0.87;;;;;;;21.80;60.75;96674.31;10289300;28;20501;-27
2023/09/19 21:57:16;;;;;;;1.07;0.60;;;;;;;21.80;60.63;96672.59;10282286;28;20023;-27
2023/09/19 22:02:16;;;;;;;0.50;0.40;;;;;;;21.79;60.67;96665.81;10282972;28;20021;-28
2023/09/19 22:07:18;;;;;;;0.88;0.47;;;;;;;21.79;60.82;96675.16;10280702;28;20085;-26
2023/09/19 22:12:19;;;;;;;0.57;0.52;;;;;;;21.71;60.92;96659.97;10282790;28;20043;-27
2023/09/19 22:17:20;;;;;;;2.03;0.60;;;;;;;21.77;60.74;96659.91;10288128;28;20467;-27
2023/09/19 22:22:22;;;;;;;1.10;0.50;;;;;;;21.79;60.74;96663.28;10286884;28;20282;-27
2023/09/19 22:27:22;;;;;;;1.00;0.47;;;;;;;21.79;60.78;96652.22;10283106;28;20035;-27
2023/09/19 22:32:25;;;;;;;2.25;0.50;;;;;;;21.78;60.78;96645.44;10287351;28;20035;-27
2023/09/19 22:37:27;;;;;;;1.15;0.90;;;;;;;21.79;60.35;96650.53;10284625;28;20030;-27
2023/09/19 22:42:28;;;;;;;1.45;0.57;;;;;;;21.78;60.77;96648.84;10286096;28;20037;-26
2023/09/19 22:47:29;;;;;;;1.35;0.35;;;;;;;21.75;60.50;96643.81;10287146;28;20402;-27
2023/09/19 22:52:29;;;;;;;0.80;0.40;;;;;;;21.77;60.66;96639.53;10281040;28;20039;-27
2023/09/19 22:57:29;;;;;;;0.30;0.30;;;;;;;21.77;60.78;96636.97;10291609;28;20042;-26
2023/09/19 23:02:30;;;;;;;0.87;0.30;;;;;;;21.77;60.56;96636.13;10287219;28;20062;-26
2023/09/19 23:07:30;;;;;;;0.60;0.50;;;;;;;21.76;60.68;96634.44;10290449;28;20035;-27
2023/09/19 23:12:32;;;;;;;1.80;0.60;;;;;;;21.77;60.75;96634.44;10291166;28;20486;-27
2023/09/19 23:17:35;;;;;;;0.57;0.52;;;;;;;21.77;60.71;96636.97;10291975;28;20050;-26
2023/09/19 23:22:36;;;;;;;0.82;0.47;;;;;;;21.77;60.73;96631.03;10282922;28;20039;-27
2023/09/19 23:27:36;;;;;;;0.65;0.30;;;;;;;21.74;60.63;96626.81;10289964;28;20064;-26
2023/09/19 23:32:37;;;;;;;0.40;0.40;;;;;;;21.75;60.67;96628.50;10290968;28;20038;-27